sensor_id;sensor_type;location;lat;lon;timestamp;P1;durP1;ratioP1;P2;durP2;ratioP2
31206;SDS011;17834;52.992;8.856;2023-05-02T00:01:35;30.50;;;13.02;;
31206;SDS011;17834;52.992;8.856;2023-05-02T00:04:02;28.02;;;13.25;;
31206;SDS011;17834;52.992;8.856;2023-05-02T00:06:29;29.27;;;12.88;;
31206;SDS011;17834;52.992;8.856;2023-05-02T00:08:55;30.15;;;14.10;;
31206;SDS011;17834;52.992;8.856;2023-05-02T00:11:21;28.02;;;13.98;;
31206;SDS011;17834;52.992;8.856;2023-05-02T00:13:48;27.98;;;13.35;;
31206;SDS011;17834;52.992;8.856;2023-05-02T00:16:14;34.17;;;15.40;;
31206;SDS011;17834;52.992;8.856;2023-05-02T00:18:40;28.48;;;14.80;;
31206;SDS011;17834;52.992;8.856;2023-05-02T00:21:05;29.23;;;14.50;;
31206;SDS011;17834;52.992;8.856;2023-05-02T00:23:32;28.10;;;14.02;;
31206;SDS011;17834;52.992;8.856;2023-05-02T00:25:58;31.27;;;15.63;;
31206;SDS011;17834;52.992;8.856;2023-05-02T00:28:24;37.05;;;14.90;;
31206;SDS011;17834;52.992;8.856;2023-05-02T00:30:51;35.13;;;14.77;;
31206;SDS011;17834;52.992;8.856;2023-05-02T00:33:16;32.58;;;15.32;;
31206;SDS011;17834;52.992;8.856;2023-05-02T00:35:42;31.48;;;14.32;;
31206;SDS011;17834;52.992;8.856;2023-05-02T00:38:08;31.23;;;15.00;;
31206;SDS011;17834;52.992;8.856;2023-05-02T00:40:43;33.63;;;15.10;;
31206;SDS011;17834;52.992;8.856;2023-05-02T00:43:10;29.35;;;14.82;;
31206;SDS011;17834;52.992;8.856;2023-05-02T00:45:36;34.45;;;15.30;;
31206;SDS011;17834;52.992;8.856;2023-05-02T00:48:04;33.85;;;15.90;;
31206;SDS011;17834;52.992;8.856;2023-05-02T00:50:31;30.95;;;14.10;;
31206;SDS011;17834;52.992;8.856;2023-05-02T00:53:00;33.40;;;15.45;;
31206;SDS011;17834;52.992;8.856;2023-05-02T00:55:27;35.33;;;16.52;;
31206;SDS011;17834;52.992;8.856;2023-05-02T00:57:53;32.50;;;15.90;;
31206;SDS011;17834;52.992;8.856;2023-05-02T01:00:19;29.17;;;14.43;;
31206;SDS011;17834;52.992;8.856;2023-05-02T01:02:52;35.03;;;15.95;;
31206;SDS011;17834;52.992;8.856;2023-05-02T01:05:32;31.08;;;14.10;;
31206;SDS011;17834;52.992;8.856;2023-05-02T01:11:16;32.55;;;14.25;;
31206;SDS011;17834;52.992;8.856;2023-05-02T01:13:53;28.38;;;14.02;;
31206;SDS011;17834;52.992;8.856;2023-05-02T01:16:20;28.15;;;13.35;;
31206;SDS011;17834;52.992;8.856;2023-05-02T01:18:48;27.35;;;13.73;;
31206;SDS011;17834;52.992;8.856;2023-05-02T01:21:15;32.42;;;14.73;;
31206;SDS011;17834;52.992;8.856;2023-05-02T01:29:12;30.15;;;13.68;;
31206;SDS011;17834;52.992;8.856;2023-05-02T01:31:40;37.25;;;13.40;;
31206;SDS011;17834;52.992;8.856;2023-05-02T01:34:09;31.17;;;13.30;;
31206;SDS011;17834;52.992;8.856;2023-05-02T01:36:35;28.85;;;14.10;;
31206;SDS011;17834;52.992;8.856;2023-05-02T01:39:04;27.88;;;12.93;;
31206;SDS011;17834;52.992;8.856;2023-05-02T01:41:33;32.63;;;12.98;;
31206;SDS011;17834;52.992;8.856;2023-05-02T01:44:00;27.60;;;11.98;;
31206;SDS011;17834;52.992;8.856;2023-05-02T01:46:29;26.15;;;11.05;;
31206;SDS011;17834;52.992;8.856;2023-05-02T01:48:58;27.73;;;11.48;;
31206;SDS011;17834;52.992;8.856;2023-05-02T01:51:27;22.42;;;9.75;;
31206;SDS011;17834;52.992;8.856;2023-05-02T01:53:57;25.38;;;9.35;;
31206;SDS011;17834;52.992;8.856;2023-05-02T01:56:26;25.20;;;9.65;;
31206;SDS011;17834;52.992;8.856;2023-05-02T01:58:56;25.17;;;9.48;;
31206;SDS011;17834;52.992;8.856;2023-05-02T02:01:22;22.77;;;8.95;;
31206;SDS011;17834;52.992;8.856;2023-05-02T02:03:52;27.42;;;9.45;;
31206;SDS011;17834;52.992;8.856;2023-05-02T02:06:20;28.88;;;9.55;;
31206;SDS011;17834;52.992;8.856;2023-05-02T02:08:46;21.17;;;8.75;;
31206;SDS011;17834;52.992;8.856;2023-05-02T02:11:12;20.15;;;8.10;;
31206;SDS011;17834;52.992;8.856;2023-05-02T02:13:48;20.77;;;8.25;;
31206;SDS011;17834;52.992;8.856;2023-05-02T02:16:29;17.10;;;7.65;;
31206;SDS011;17834;52.992;8.856;2023-05-02T02:18:56;15.95;;;6.97;;
31206;SDS011;17834;52.992;8.856;2023-05-02T02:21:28;19.65;;;6.97;;
31206;SDS011;17834;52.992;8.856;2023-05-02T02:23:56;17.83;;;6.68;;
31206;SDS011;17834;52.992;8.856;2023-05-02T02:26:25;16.23;;;6.32;;
31206;SDS011;17834;52.992;8.856;2023-05-02T02:28:51;16.75;;;6.05;;
31206;SDS011;17834;52.992;8.856;2023-05-02T02:31:17;13.38;;;5.97;;
31206;SDS011;17834;52.992;8.856;2023-05-02T02:33:42;14.45;;;5.60;;
31206;SDS011;17834;52.992;8.856;2023-05-02T02:36:12;12.55;;;5.78;;
31206;SDS011;17834;52.992;8.856;2023-05-02T02:38:44;15.65;;;6.00;;
31206;SDS011;17834;52.992;8.856;2023-05-02T02:41:22;13.25;;;5.25;;
31206;SDS011;17834;52.992;8.856;2023-05-02T02:47:05;9.07;;;4.85;;
31206;SDS011;17834;52.992;8.856;2023-05-02T02:49:37;7.45;;;4.00;;
31206;SDS011;17834;52.992;8.856;2023-05-02T02:52:16;6.38;;;2.88;;
31206;SDS011;17834;52.992;8.856;2023-05-02T02:54:56;4.47;;;1.70;;
31206;SDS011;17834;52.992;8.856;2023-05-02T02:57:31;3.60;;;1.85;;
31206;SDS011;17834;52.992;8.856;2023-05-02T03:00:05;2.30;;;1.50;;
31206;SDS011;17834;52.992;8.856;2023-05-02T03:02:40;4.03;;;2.03;;
31206;SDS011;17834;52.992;8.856;2023-05-02T03:05:07;4.63;;;1.60;;
31206;SDS011;17834;52.992;8.856;2023-05-02T03:07:34;6.97;;;2.25;;
31206;SDS011;17834;52.992;8.856;2023-05-02T03:10:01;6.20;;;2.17;;
31206;SDS011;17834;52.992;8.856;2023-05-02T03:12:28;6.70;;;2.22;;
31206;SDS011;17834;52.992;8.856;2023-05-02T03:17:25;7.68;;;2.25;;
31206;SDS011;17834;52.992;8.856;2023-05-02T03:19:51;8.35;;;2.42;;
31206;SDS011;17834;52.992;8.856;2023-05-02T03:22:16;6.65;;;2.90;;
31206;SDS011;17834;52.992;8.856;2023-05-02T03:24:42;7.00;;;3.03;;
31206;SDS011;17834;52.992;8.856;2023-05-02T03:27:07;13.60;;;3.20;;
31206;SDS011;17834;52.992;8.856;2023-05-02T03:29:33;10.38;;;3.88;;
31206;SDS011;17834;52.992;8.856;2023-05-02T03:31:59;8.90;;;3.10;;
31206;SDS011;17834;52.992;8.856;2023-05-02T03:34:24;11.95;;;3.13;;
31206;SDS011;17834;52.992;8.856;2023-05-02T03:36:50;13.95;;;3.60;;
31206;SDS011;17834;52.992;8.856;2023-05-02T03:39:15;13.82;;;3.83;;
31206;SDS011;17834;52.992;8.856;2023-05-02T03:41:41;11.25;;;4.07;;
31206;SDS011;17834;52.992;8.856;2023-05-02T03:44:07;19.95;;;4.30;;
31206;SDS011;17834;52.992;8.856;2023-05-02T03:46:33;18.13;;;4.15;;
31206;SDS011;17834;52.992;8.856;2023-05-02T03:48:58;20.08;;;4.63;;
31206;SDS011;17834;52.992;8.856;2023-05-02T03:51:24;16.30;;;4.82;;
31206;SDS011;17834;52.992;8.856;2023-05-02T03:53:50;20.85;;;4.75;;
31206;SDS011;17834;52.992;8.856;2023-05-02T03:56:16;13.20;;;3.47;;
31206;SDS011;17834;52.992;8.856;2023-05-02T03:58:44;9.55;;;4.30;;
31206;SDS011;17834;52.992;8.856;2023-05-02T04:01:15;13.90;;;4.63;;
31206;SDS011;17834;52.992;8.856;2023-05-02T04:03:41;20.42;;;4.35;;
31206;SDS011;17834;52.992;8.856;2023-05-02T04:06:07;14.05;;;3.78;;
31206;SDS011;17834;52.992;8.856;2023-05-02T04:08:33;16.88;;;4.75;;
31206;SDS011;17834;52.992;8.856;2023-05-02T04:10:58;11.93;;;4.40;;
31206;SDS011;17834;52.992;8.856;2023-05-02T04:13:24;13.23;;;4.15;;
31206;SDS011;17834;52.992;8.856;2023-05-02T04:15:49;14.23;;;3.97;;
31206;SDS011;17834;52.992;8.856;2023-05-02T04:18:15;19.83;;;4.82;;
31206;SDS011;17834;52.992;8.856;2023-05-02T04:20:43;12.95;;;3.90;;
31206;SDS011;17834;52.992;8.856;2023-05-02T04:23:09;12.25;;;3.47;;
31206;SDS011;17834;52.992;8.856;2023-05-02T04:25:35;14.98;;;5.40;;
31206;SDS011;17834;52.992;8.856;2023-05-02T04:28:00;12.55;;;4.10;;
31206;SDS011;17834;52.992;8.856;2023-05-02T04:30:26;14.30;;;4.03;;
31206;SDS011;17834;52.992;8.856;2023-05-02T04:32:51;12.88;;;3.40;;
31206;SDS011;17834;52.992;8.856;2023-05-02T04:35:17;14.57;;;3.78;;
31206;SDS011;17834;52.992;8.856;2023-05-02T04:37:43;12.88;;;3.40;;
31206;SDS011;17834;52.992;8.856;2023-05-02T04:40:09;16.90;;;3.83;;
31206;SDS011;17834;52.992;8.856;2023-05-02T04:42:35;11.27;;;4.35;;
31206;SDS011;17834;52.992;8.856;2023-05-02T04:45:00;16.92;;;3.95;;
31206;SDS011;17834;52.992;8.856;2023-05-02T04:47:26;11.43;;;3.72;;
31206;SDS011;17834;52.992;8.856;2023-05-02T04:49:52;11.48;;;4.22;;
31206;SDS011;17834;52.992;8.856;2023-05-02T04:52:17;16.63;;;3.80;;
31206;SDS011;17834;52.992;8.856;2023-05-02T04:54:43;12.18;;;3.45;;
31206;SDS011;17834;52.992;8.856;2023-05-02T04:57:08;14.50;;;3.45;;
31206;SDS011;17834;52.992;8.856;2023-05-02T04:59:34;12.35;;;3.08;;
31206;SDS011;17834;52.992;8.856;2023-05-02T05:02:00;10.98;;;3.45;;
31206;SDS011;17834;52.992;8.856;2023-05-02T05:04:26;17.42;;;4.70;;
31206;SDS011;17834;52.992;8.856;2023-05-02T05:06:52;15.18;;;3.80;;
31206;SDS011;17834;52.992;8.856;2023-05-02T05:09:18;13.32;;;3.55;;
31206;SDS011;17834;52.992;8.856;2023-05-02T05:11:44;12.02;;;3.45;;
31206;SDS011;17834;52.992;8.856;2023-05-02T05:14:12;20.30;;;3.30;;
31206;SDS011;17834;52.992;8.856;2023-05-02T05:16:38;16.40;;;3.60;;
31206;SDS011;17834;52.992;8.856;2023-05-02T05:19:04;10.73;;;3.42;;
31206;SDS011;17834;52.992;8.856;2023-05-02T05:21:29;12.60;;;3.53;;
31206;SDS011;17834;52.992;8.856;2023-05-02T05:23:55;19.73;;;3.53;;
31206;SDS011;17834;52.992;8.856;2023-05-02T05:26:21;19.67;;;3.63;;
31206;SDS011;17834;52.992;8.856;2023-05-02T05:28:48;15.27;;;3.30;;
31206;SDS011;17834;52.992;8.856;2023-05-02T05:31:15;12.52;;;3.58;;
31206;SDS011;17834;52.992;8.856;2023-05-02T05:33:41;12.10;;;3.28;;
31206;SDS011;17834;52.992;8.856;2023-05-02T05:36:08;11.48;;;3.38;;
31206;SDS011;17834;52.992;8.856;2023-05-02T05:38:35;14.98;;;4.20;;
31206;SDS011;17834;52.992;8.856;2023-05-02T05:41:01;16.48;;;3.22;;
31206;SDS011;17834;52.992;8.856;2023-05-02T05:43:27;15.85;;;2.83;;
31206;SDS011;17834;52.992;8.856;2023-05-02T05:45:53;10.10;;;2.58;;
31206;SDS011;17834;52.992;8.856;2023-05-02T05:48:19;11.07;;;3.25;;
31206;SDS011;17834;52.992;8.856;2023-05-02T05:50:45;18.80;;;3.97;;
31206;SDS011;17834;52.992;8.856;2023-05-02T05:53:12;10.18;;;3.15;;
31206;SDS011;17834;52.992;8.856;2023-05-02T05:55:38;12.70;;;3.38;;
31206;SDS011;17834;52.992;8.856;2023-05-02T05:58:04;13.60;;;3.22;;
31206;SDS011;17834;52.992;8.856;2023-05-02T06:00:30;15.85;;;3.75;;
31206;SDS011;17834;52.992;8.856;2023-05-02T06:02:58;6.18;;;2.38;;
31206;SDS011;17834;52.992;8.856;2023-05-02T06:05:23;15.85;;;3.50;;
31206;SDS011;17834;52.992;8.856;2023-05-02T06:07:49;14.48;;;2.90;;
31206;SDS011;17834;52.992;8.856;2023-05-02T06:10:14;14.15;;;2.72;;
31206;SDS011;17834;52.992;8.856;2023-05-02T06:12:40;7.93;;;2.88;;
31206;SDS011;17834;52.992;8.856;2023-05-02T06:15:06;7.35;;;2.53;;
31206;SDS011;17834;52.992;8.856;2023-05-02T06:17:32;15.07;;;2.95;;
31206;SDS011;17834;52.992;8.856;2023-05-02T06:19:57;13.43;;;3.08;;
31206;SDS011;17834;52.992;8.856;2023-05-02T06:22:23;9.95;;;2.92;;
31206;SDS011;17834;52.992;8.856;2023-05-02T06:24:48;7.75;;;2.10;;
31206;SDS011;17834;52.992;8.856;2023-05-02T06:27:14;10.68;;;2.60;;
31206;SDS011;17834;52.992;8.856;2023-05-02T06:29:40;9.55;;;2.53;;
31206;SDS011;17834;52.992;8.856;2023-05-02T06:32:06;6.63;;;2.25;;
31206;SDS011;17834;52.992;8.856;2023-05-02T06:34:31;6.63;;;2.33;;
31206;SDS011;17834;52.992;8.856;2023-05-02T06:36:58;16.55;;;2.58;;
31206;SDS011;17834;52.992;8.856;2023-05-02T06:39:23;10.88;;;2.42;;
31206;SDS011;17834;52.992;8.856;2023-05-02T06:41:49;9.68;;;2.67;;
31206;SDS011;17834;52.992;8.856;2023-05-02T06:44:15;9.45;;;2.35;;
31206;SDS011;17834;52.992;8.856;2023-05-02T06:46:40;11.52;;;2.65;;
31206;SDS011;17834;52.992;8.856;2023-05-02T06:49:06;13.48;;;3.15;;
31206;SDS011;17834;52.992;8.856;2023-05-02T06:51:31;8.30;;;2.47;;
31206;SDS011;17834;52.992;8.856;2023-05-02T06:53:57;11.13;;;2.33;;
31206;SDS011;17834;52.992;8.856;2023-05-02T06:56:23;7.63;;;2.38;;
31206;SDS011;17834;52.992;8.856;2023-05-02T06:58:50;11.80;;;2.95;;
31206;SDS011;17834;52.992;8.856;2023-05-02T07:01:16;8.65;;;2.85;;
31206;SDS011;17834;52.992;8.856;2023-05-02T07:03:41;10.00;;;2.40;;
31206;SDS011;17834;52.992;8.856;2023-05-02T07:06:07;6.65;;;2.20;;
31206;SDS011;17834;52.992;8.856;2023-05-02T07:08:33;7.20;;;2.53;;
31206;SDS011;17834;52.992;8.856;2023-05-02T07:10:59;9.27;;;2.50;;
31206;SDS011;17834;52.992;8.856;2023-05-02T07:13:26;14.25;;;2.67;;
31206;SDS011;17834;52.992;8.856;2023-05-02T07:15:51;8.20;;;2.78;;
31206;SDS011;17834;52.992;8.856;2023-05-02T07:18:17;10.73;;;2.55;;
31206;SDS011;17834;52.992;8.856;2023-05-02T07:20:43;11.23;;;2.85;;
31206;SDS011;17834;52.992;8.856;2023-05-02T07:23:09;9.65;;;3.17;;
31206;SDS011;17834;52.992;8.856;2023-05-02T07:25:34;11.35;;;2.90;;
31206;SDS011;17834;52.992;8.856;2023-05-02T07:28:00;6.65;;;2.58;;
31206;SDS011;17834;52.992;8.856;2023-05-02T07:30:26;8.60;;;2.75;;
31206;SDS011;17834;52.992;8.856;2023-05-02T07:32:51;13.80;;;3.13;;
31206;SDS011;17834;52.992;8.856;2023-05-02T07:35:17;8.85;;;2.42;;
31206;SDS011;17834;52.992;8.856;2023-05-02T07:37:42;7.32;;;2.40;;
31206;SDS011;17834;52.992;8.856;2023-05-02T07:40:08;8.48;;;2.08;;
31206;SDS011;17834;52.992;8.856;2023-05-02T07:42:34;7.20;;;2.25;;
31206;SDS011;17834;52.992;8.856;2023-05-02T07:45:00;6.78;;;2.58;;
31206;SDS011;17834;52.992;8.856;2023-05-02T07:47:26;12.95;;;3.03;;
31206;SDS011;17834;52.992;8.856;2023-05-02T07:49:52;10.73;;;2.90;;
31206;SDS011;17834;52.992;8.856;2023-05-02T07:52:19;9.30;;;2.50;;
31206;SDS011;17834;52.992;8.856;2023-05-02T07:54:46;13.18;;;2.58;;
31206;SDS011;17834;52.992;8.856;2023-05-02T07:57:13;6.97;;;2.67;;
31206;SDS011;17834;52.992;8.856;2023-05-02T07:59:39;8.63;;;3.80;;
31206;SDS011;17834;52.992;8.856;2023-05-02T08:02:05;4.70;;;2.10;;
31206;SDS011;17834;52.992;8.856;2023-05-02T08:04:31;13.18;;;2.55;;
31206;SDS011;17834;52.992;8.856;2023-05-02T08:06:57;5.63;;;2.40;;
31206;SDS011;17834;52.992;8.856;2023-05-02T08:09:22;7.55;;;2.53;;
31206;SDS011;17834;52.992;8.856;2023-05-02T08:11:48;9.05;;;2.42;;
31206;SDS011;17834;52.992;8.856;2023-05-02T08:14:14;7.78;;;2.95;;
31206;SDS011;17834;52.992;8.856;2023-05-02T08:16:40;8.07;;;2.40;;
31206;SDS011;17834;52.992;8.856;2023-05-02T08:19:06;11.57;;;3.13;;
31206;SDS011;17834;52.992;8.856;2023-05-02T08:21:32;12.00;;;2.45;;
31206;SDS011;17834;52.992;8.856;2023-05-02T08:23:58;7.32;;;2.60;;
31206;SDS011;17834;52.992;8.856;2023-05-02T08:26:24;6.10;;;1.90;;
31206;SDS011;17834;52.992;8.856;2023-05-02T08:28:50;5.50;;;2.15;;
31206;SDS011;17834;52.992;8.856;2023-05-02T08:31:16;6.20;;;2.55;;
31206;SDS011;17834;52.992;8.856;2023-05-02T08:33:42;7.00;;;2.28;;
31206;SDS011;17834;52.992;8.856;2023-05-02T08:36:14;7.60;;;2.28;;
31206;SDS011;17834;52.992;8.856;2023-05-02T08:38:43;6.35;;;2.35;;
31206;SDS011;17834;52.992;8.856;2023-05-02T08:41:19;12.20;;;2.95;;
31206;SDS011;17834;52.992;8.856;2023-05-02T08:43:44;6.88;;;2.20;;
31206;SDS011;17834;52.992;8.856;2023-05-02T08:46:11;7.63;;;2.40;;
31206;SDS011;17834;52.992;8.856;2023-05-02T08:48:41;6.47;;;2.65;;
31206;SDS011;17834;52.992;8.856;2023-05-02T08:51:09;8.32;;;2.80;;
31206;SDS011;17834;52.992;8.856;2023-05-02T08:53:36;7.20;;;2.63;;
31206;SDS011;17834;52.992;8.856;2023-05-02T08:56:03;7.80;;;2.22;;
31206;SDS011;17834;52.992;8.856;2023-05-02T08:58:30;6.80;;;2.08;;
31206;SDS011;17834;52.992;8.856;2023-05-02T09:00:56;6.63;;;2.30;;
31206;SDS011;17834;52.992;8.856;2023-05-02T09:03:29;10.88;;;2.55;;
31206;SDS011;17834;52.992;8.856;2023-05-02T09:06:10;9.40;;;2.30;;
31206;SDS011;17834;52.992;8.856;2023-05-02T09:08:40;7.82;;;2.00;;
31206;SDS011;17834;52.992;8.856;2023-05-02T09:11:07;7.93;;;2.13;;
31206;SDS011;17834;52.992;8.856;2023-05-02T09:13:35;6.93;;;2.15;;
31206;SDS011;17834;52.992;8.856;2023-05-02T09:18:33;8.90;;;2.00;;
31206;SDS011;17834;52.992;8.856;2023-05-02T09:21:03;5.15;;;1.95;;
31206;SDS011;17834;52.992;8.856;2023-05-02T09:23:31;6.55;;;2.10;;
31206;SDS011;17834;52.992;8.856;2023-05-02T09:26:10;9.95;;;1.85;;
31206;SDS011;17834;52.992;8.856;2023-05-02T09:28:47;5.32;;;2.22;;
31206;SDS011;17834;52.992;8.856;2023-05-02T09:31:19;4.13;;;1.73;;
31206;SDS011;17834;52.992;8.856;2023-05-02T09:33:45;6.47;;;2.00;;
31206;SDS011;17834;52.992;8.856;2023-05-02T09:36:12;8.18;;;2.00;;
31206;SDS011;17834;52.992;8.856;2023-05-02T09:38:43;4.18;;;1.77;;
31206;SDS011;17834;52.992;8.856;2023-05-02T09:41:09;5.40;;;1.50;;
31206;SDS011;17834;52.992;8.856;2023-05-02T09:43:35;13.27;;;1.73;;
31206;SDS011;17834;52.992;8.856;2023-05-02T09:46:02;6.63;;;1.50;;
31206;SDS011;17834;52.992;8.856;2023-05-02T09:48:56;4.20;;;1.88;;
31206;SDS011;17834;52.992;8.856;2023-05-02T09:51:22;4.28;;;1.50;;
31206;SDS011;17834;52.992;8.856;2023-05-02T09:53:48;7.93;;;1.48;;
31206;SDS011;17834;52.992;8.856;2023-05-02T09:56:15;3.53;;;1.52;;
31206;SDS011;17834;52.992;8.856;2023-05-02T09:58:40;5.00;;;1.40;;
31206;SDS011;17834;52.992;8.856;2023-05-02T10:01:06;7.65;;;2.15;;
31206;SDS011;17834;52.992;8.856;2023-05-02T10:03:34;5.75;;;1.45;;
31206;SDS011;17834;52.992;8.856;2023-05-02T10:06:01;4.00;;;1.23;;
31206;SDS011;17834;52.992;8.856;2023-05-02T10:08:29;3.67;;;1.30;;
31206;SDS011;17834;52.992;8.856;2023-05-02T10:10:57;5.55;;;1.40;;
31206;SDS011;17834;52.992;8.856;2023-05-02T10:13:24;6.00;;;1.70;;
31206;SDS011;17834;52.992;8.856;2023-05-02T10:15:59;5.82;;;1.60;;
31206;SDS011;17834;52.992;8.856;2023-05-02T10:18:50;4.00;;;1.15;;
31206;SDS011;17834;52.992;8.856;2023-05-02T10:21:16;2.33;;;1.05;;
31206;SDS011;17834;52.992;8.856;2023-05-02T10:23:53;8.40;;;1.55;;
31206;SDS011;17834;52.992;8.856;2023-05-02T10:26:19;7.15;;;1.30;;
31206;SDS011;17834;52.992;8.856;2023-05-02T10:28:46;6.93;;;1.10;;
31206;SDS011;17834;52.992;8.856;2023-05-02T10:31:13;5.20;;;1.38;;
31206;SDS011;17834;52.992;8.856;2023-05-02T10:33:39;4.95;;;1.20;;
31206;SDS011;17834;52.992;8.856;2023-05-02T10:36:06;4.65;;;1.15;;
31206;SDS011;17834;52.992;8.856;2023-05-02T10:38:33;1.70;;;0.90;;
31206;SDS011;17834;52.992;8.856;2023-05-02T10:41:01;3.05;;;1.40;;
31206;SDS011;17834;52.992;8.856;2023-05-02T10:43:31;2.75;;;1.10;;
31206;SDS011;17834;52.992;8.856;2023-05-02T10:45:59;2.78;;;1.00;;
31206;SDS011;17834;52.992;8.856;2023-05-02T10:48:26;3.42;;;1.45;;
31206;SDS011;17834;52.992;8.856;2023-05-02T10:50:52;2.80;;;1.30;;
31206;SDS011;17834;52.992;8.856;2023-05-02T10:53:29;6.90;;;1.65;;
31206;SDS011;17834;52.992;8.856;2023-05-02T10:58:50;5.50;;;1.50;;
31206;SDS011;17834;52.992;8.856;2023-05-02T11:06:25;4.78;;;1.35;;
31206;SDS011;17834;52.992;8.856;2023-05-02T11:09:28;4.93;;;1.50;;
31206;SDS011;17834;52.992;8.856;2023-05-02T11:11:48;7.50;;;1.20;;
31206;SDS011;17834;52.992;8.856;2023-05-02T11:19:27;7.45;;;1.85;;
31206;SDS011;17834;52.992;8.856;2023-05-02T11:24:45;6.65;;;1.65;;
31206;SDS011;17834;52.992;8.856;2023-05-02T11:30:05;6.00;;;1.35;;
31206;SDS011;17834;52.992;8.856;2023-05-02T11:35:17;2.83;;;1.20;;
31206;SDS011;17834;52.992;8.856;2023-05-02T11:37:59;7.40;;;1.48;;
31206;SDS011;17834;52.992;8.856;2023-05-02T11:40:51;5.57;;;1.20;;
31206;SDS011;17834;52.992;8.856;2023-05-02T11:43:19;4.80;;;1.42;;
31206;SDS011;17834;52.992;8.856;2023-05-02T11:45:48;3.67;;;1.50;;
31206;SDS011;17834;52.992;8.856;2023-05-02T11:48:15;5.28;;;1.58;;
31206;SDS011;17834;52.992;8.856;2023-05-02T11:50:45;2.55;;;1.20;;
31206;SDS011;17834;52.992;8.856;2023-05-02T11:53:14;6.57;;;1.55;;
31206;SDS011;17834;52.992;8.856;2023-05-02T11:55:45;3.20;;;1.20;;
31206;SDS011;17834;52.992;8.856;2023-05-02T11:58:12;4.82;;;1.23;;
31206;SDS011;17834;52.992;8.856;2023-05-02T12:00:39;6.20;;;1.25;;
31206;SDS011;17834;52.992;8.856;2023-05-02T12:03:05;3.33;;;1.52;;
31206;SDS011;17834;52.992;8.856;2023-05-02T12:05:31;4.35;;;1.60;;
31206;SDS011;17834;52.992;8.856;2023-05-02T12:07:57;3.35;;;1.10;;
31206;SDS011;17834;52.992;8.856;2023-05-02T12:10:22;1.50;;;0.80;;
31206;SDS011;17834;52.992;8.856;2023-05-02T12:13:02;2.25;;;1.20;;
31206;SDS011;17834;52.992;8.856;2023-05-02T12:15:28;3.83;;;1.00;;
31206;SDS011;17834;52.992;8.856;2023-05-02T12:17:54;4.30;;;1.15;;
31206;SDS011;17834;52.992;8.856;2023-05-02T12:20:20;3.25;;;1.00;;
31206;SDS011;17834;52.992;8.856;2023-05-02T12:22:46;3.72;;;1.20;;
31206;SDS011;17834;52.992;8.856;2023-05-02T12:25:12;4.07;;;1.02;;
31206;SDS011;17834;52.992;8.856;2023-05-02T12:27:37;2.53;;;0.80;;
31206;SDS011;17834;52.992;8.856;2023-05-02T12:30:03;3.33;;;1.08;;
31206;SDS011;17834;52.992;8.856;2023-05-02T12:32:30;2.50;;;1.00;;
31206;SDS011;17834;52.992;8.856;2023-05-02T12:34:58;1.80;;;0.85;;
31206;SDS011;17834;52.992;8.856;2023-05-02T12:37:24;2.58;;;1.10;;
31206;SDS011;17834;52.992;8.856;2023-05-02T12:39:53;5.10;;;1.23;;
31206;SDS011;17834;52.992;8.856;2023-05-02T12:42:21;2.47;;;1.10;;
31206;SDS011;17834;52.992;8.856;2023-05-02T12:44:48;3.03;;;1.10;;
31206;SDS011;17834;52.992;8.856;2023-05-02T12:47:18;3.35;;;1.30;;
31206;SDS011;17834;52.992;8.856;2023-05-02T12:52:17;3.47;;;0.90;;
31206;SDS011;17834;52.992;8.856;2023-05-02T12:55:16;2.15;;;0.75;;
31206;SDS011;17834;52.992;8.856;2023-05-02T12:57:47;5.35;;;1.02;;
31206;SDS011;17834;52.992;8.856;2023-05-02T13:00:14;3.17;;;1.02;;
31206;SDS011;17834;52.992;8.856;2023-05-02T13:02:41;4.10;;;1.75;;
31206;SDS011;17834;52.992;8.856;2023-05-02T13:05:16;1.08;;;0.75;;
31206;SDS011;17834;52.992;8.856;2023-05-02T13:07:42;2.22;;;1.25;;
31206;SDS011;17834;52.992;8.856;2023-05-02T13:10:08;4.28;;;1.38;;
31206;SDS011;17834;52.992;8.856;2023-05-02T13:12:35;2.70;;;1.35;;
31206;SDS011;17834;52.992;8.856;2023-05-02T13:15:05;3.95;;;1.20;;
31206;SDS011;17834;52.992;8.856;2023-05-02T13:17:32;4.68;;;1.00;;
31206;SDS011;17834;52.992;8.856;2023-05-02T13:19:58;4.78;;;0.95;;
31206;SDS011;17834;52.992;8.856;2023-05-02T13:22:24;3.13;;;0.85;;
31206;SDS011;17834;52.992;8.856;2023-05-02T13:24:50;2.30;;;0.93;;
31206;SDS011;17834;52.992;8.856;2023-05-02T13:27:16;2.38;;;0.70;;
31206;SDS011;17834;52.992;8.856;2023-05-02T13:29:45;3.40;;;0.93;;
31206;SDS011;17834;52.992;8.856;2023-05-02T13:32:12;5.35;;;1.15;;
31206;SDS011;17834;52.992;8.856;2023-05-02T13:34:38;5.05;;;1.00;;
31206;SDS011;17834;52.992;8.856;2023-05-02T13:37:03;3.83;;;1.30;;
31206;SDS011;17834;52.992;8.856;2023-05-02T13:39:29;2.35;;;1.05;;
31206;SDS011;17834;52.992;8.856;2023-05-02T13:41:54;4.18;;;1.10;;
31206;SDS011;17834;52.992;8.856;2023-05-02T13:44:20;2.22;;;1.35;;
31206;SDS011;17834;52.992;8.856;2023-05-02T13:46:46;6.30;;;1.60;;
31206;SDS011;17834;52.992;8.856;2023-05-02T13:49:12;4.95;;;1.63;;
31206;SDS011;17834;52.992;8.856;2023-05-02T13:51:37;6.75;;;1.65;;
31206;SDS011;17834;52.992;8.856;2023-05-02T13:54:03;2.40;;;0.88;;
31206;SDS011;17834;52.992;8.856;2023-05-02T13:56:29;5.88;;;1.02;;
31206;SDS011;17834;52.992;8.856;2023-05-02T13:58:54;4.65;;;1.15;;
31206;SDS011;17834;52.992;8.856;2023-05-02T14:01:20;3.35;;;1.00;;
31206;SDS011;17834;52.992;8.856;2023-05-02T14:03:46;5.13;;;1.10;;
31206;SDS011;17834;52.992;8.856;2023-05-02T14:06:12;3.45;;;1.00;;
31206;SDS011;17834;52.992;8.856;2023-05-02T14:08:37;3.97;;;1.08;;
31206;SDS011;17834;52.992;8.856;2023-05-02T14:11:03;2.83;;;1.05;;
31206;SDS011;17834;52.992;8.856;2023-05-02T14:13:28;3.30;;;1.35;;
31206;SDS011;17834;52.992;8.856;2023-05-02T14:15:54;3.33;;;1.20;;
31206;SDS011;17834;52.992;8.856;2023-05-02T14:18:19;1.42;;;0.60;;
31206;SDS011;17834;52.992;8.856;2023-05-02T14:20:45;6.47;;;0.80;;
31206;SDS011;17834;52.992;8.856;2023-05-02T14:23:11;2.17;;;0.95;;
31206;SDS011;17834;52.992;8.856;2023-05-02T14:25:36;3.72;;;1.00;;
31206;SDS011;17834;52.992;8.856;2023-05-02T14:28:02;3.28;;;0.93;;
31206;SDS011;17834;52.992;8.856;2023-05-02T14:30:28;5.75;;;1.30;;
31206;SDS011;17834;52.992;8.856;2023-05-02T14:32:54;4.22;;;0.90;;
31206;SDS011;17834;52.992;8.856;2023-05-02T14:35:20;1.73;;;0.73;;
31206;SDS011;17834;52.992;8.856;2023-05-02T14:37:45;4.95;;;1.10;;
31206;SDS011;17834;52.992;8.856;2023-05-02T14:40:11;4.00;;;1.23;;
31206;SDS011;17834;52.992;8.856;2023-05-02T14:42:38;6.82;;;1.58;;
31206;SDS011;17834;52.992;8.856;2023-05-02T14:45:06;3.83;;;1.38;;
31206;SDS011;17834;52.992;8.856;2023-05-02T14:47:33;5.85;;;1.25;;
31206;SDS011;17834;52.992;8.856;2023-05-02T14:49:58;3.85;;;1.05;;
31206;SDS011;17834;52.992;8.856;2023-05-02T14:52:27;1.50;;;0.80;;
31206;SDS011;17834;52.992;8.856;2023-05-02T14:54:53;4.70;;;1.05;;
31206;SDS011;17834;52.992;8.856;2023-05-02T14:57:18;6.30;;;1.52;;
31206;SDS011;17834;52.992;8.856;2023-05-02T14:59:44;9.82;;;1.10;;
31206;SDS011;17834;52.992;8.856;2023-05-02T15:02:09;7.47;;;2.15;;
31206;SDS011;17834;52.992;8.856;2023-05-02T15:04:35;6.00;;;2.47;;
31206;SDS011;17834;52.992;8.856;2023-05-02T15:07:01;5.68;;;1.23;;
31206;SDS011;17834;52.992;8.856;2023-05-02T15:09:27;6.75;;;1.10;;
31206;SDS011;17834;52.992;8.856;2023-05-02T15:11:54;4.05;;;1.10;;
31206;SDS011;17834;52.992;8.856;2023-05-02T15:14:20;6.22;;;1.05;;
31206;SDS011;17834;52.992;8.856;2023-05-02T15:16:46;5.90;;;1.25;;
31206;SDS011;17834;52.992;8.856;2023-05-02T15:19:11;4.95;;;1.30;;
31206;SDS011;17834;52.992;8.856;2023-05-02T15:21:38;2.53;;;1.10;;
31206;SDS011;17834;52.992;8.856;2023-05-02T15:24:04;2.00;;;0.95;;